createdAt,value
2022-11-28T00:01:37.353Z,5.20
2022-11-28T00:04:06.884Z,5.30
2022-11-28T00:06:37.998Z,5.30
2022-11-28T00:09:06.147Z,5.30
2022-11-28T00:11:34.251Z,5.30
2022-11-28T00:14:02.394Z,5.20
2022-11-28T00:16:30.551Z,5.30
2022-11-28T00:19:01.912Z,5.30
2022-11-28T00:21:30.260Z,5.30
2022-11-28T00:23:59.190Z,5.30
2022-11-28T00:26:29.260Z,5.30
2022-11-28T00:28:57.704Z,5.30
2022-11-28T00:31:27.454Z,5.30
2022-11-28T00:33:56.028Z,5.30
2022-11-28T00:36:25.399Z,5.30
2022-11-28T00:38:53.449Z,5.30
2022-11-28T00:41:25.742Z,5.20
2022-11-28T00:43:54.035Z,5.20
2022-11-28T00:46:23.531Z,5.20
2022-11-28T00:48:52.065Z,5.10
2022-11-28T00:51:22.177Z,5.10
2022-11-28T00:53:53.912Z,5.10
2022-11-28T00:56:23.433Z,5.00
2022-11-28T00:58:51.638Z,5.00
2022-11-28T01:01:22.638Z,5.00
2022-11-28T01:03:53.216Z,5.00
2022-11-28T01:06:25.580Z,5.00
2022-11-28T01:08:56.221Z,4.90
2022-11-28T01:11:24.703Z,4.90
2022-11-28T01:13:55.324Z,4.90
2022-11-28T01:16:23.920Z,4.90
2022-11-28T01:18:52.203Z,4.90
2022-11-28T01:21:20.395Z,4.80
2022-11-28T01:23:48.355Z,4.80
2022-11-28T01:26:20.872Z,4.80
2022-11-28T01:28:49.673Z,4.80
2022-11-28T01:31:20.140Z,4.80
2022-11-28T01:33:48.532Z,4.80
2022-11-28T01:36:17.213Z,4.80
2022-11-28T01:38:45.804Z,4.80
2022-11-28T01:41:14.555Z,4.80
2022-11-28T01:44:04.648Z,4.70
2022-11-28T01:46:33.640Z,4.80
2022-11-28T01:49:06.842Z,4.80
2022-11-28T01:51:35.491Z,4.80
2022-11-28T01:54:04.206Z,4.80
2022-11-28T01:56:39.390Z,4.80
2022-11-28T01:59:11.757Z,4.80
2022-11-28T02:01:40.505Z,4.80
2022-11-28T02:04:08.598Z,4.80
2022-11-28T02:06:37.407Z,4.70
2022-11-28T02:09:07.414Z,4.80
2022-11-28T02:11:59.134Z,4.80
2022-11-28T02:14:56.624Z,4.80
2022-11-28T02:17:35.495Z,4.80
2022-11-28T02:20:43.315Z,4.80
2022-11-28T02:23:19.314Z,4.70
2022-11-28T02:26:15.057Z,4.80
2022-11-28T02:29:21.214Z,4.70
2022-11-28T02:32:11.014Z,4.70
2022-11-28T02:34:47.132Z,4.70
2022-11-28T02:37:21.224Z,4.60
2022-11-28T02:40:00.992Z,4.60
2022-11-28T02:42:37.885Z,4.60
2022-11-28T02:45:12.048Z,4.60
2022-11-28T02:47:46.356Z,4.60
2022-11-28T02:50:19.129Z,4.60
2022-11-28T02:52:51.278Z,4.60
2022-11-28T02:55:20.229Z,4.60
2022-11-28T02:57:49.808Z,4.70
2022-11-28T03:00:30.325Z,4.70
2022-11-28T03:03:25.965Z,4.70
2022-11-28T03:05:59.426Z,4.70
2022-11-28T03:08:44.774Z,4.70
2022-11-28T03:11:21.012Z,4.70
2022-11-28T03:13:58.237Z,4.60
2022-11-28T03:16:31.229Z,4.60
2022-11-28T03:19:10.197Z,4.60
2022-11-28T03:21:43.469Z,4.60
2022-11-28T03:24:16.192Z,4.50
2022-11-28T03:26:54.122Z,4.50
2022-11-28T03:29:26.730Z,4.50
2022-11-28T03:31:58.488Z,4.50
2022-11-28T03:34:33.272Z,4.50
2022-11-28T03:37:07.214Z,4.50
2022-11-28T03:39:37.875Z,4.50
2022-11-28T03:42:10.048Z,4.50
2022-11-28T03:44:43.613Z,4.50
2022-11-28T03:47:11.888Z,4.40
2022-11-28T03:49:44.897Z,4.40
2022-11-28T03:52:17.617Z,4.40
2022-11-28T03:54:53.167Z,4.40
2022-11-28T03:57:26.008Z,4.40
2022-11-28T03:59:55.433Z,4.40
2022-11-28T04:02:28.432Z,4.40
2022-11-28T04:05:04.450Z,4.40
2022-11-28T04:07:39.665Z,4.40
2022-11-28T04:10:14.811Z,4.50
2022-11-28T04:12:53.855Z,4.50
2022-11-28T04:15:30.304Z,4.60
2022-11-28T04:18:04.620Z,4.60
2022-11-28T04:20:39.652Z,4.70
2022-11-28T04:23:11.273Z,4.70
2022-11-28T04:25:45.517Z,4.70
2022-11-28T04:28:18.967Z,4.70
2022-11-28T04:30:49.043Z,4.60
2022-11-28T04:33:20.072Z,4.60
2022-11-28T04:35:52.663Z,4.60
2022-11-28T04:38:24.442Z,4.60
2022-11-28T04:40:55.740Z,4.60
2022-11-28T04:43:27.686Z,4.60
2022-11-28T04:46:00.656Z,4.70
2022-11-28T04:48:34.093Z,4.70
2022-11-28T04:51:15.611Z,4.80
2022-11-28T04:53:51.042Z,4.90
2022-11-28T04:56:22.923Z,4.90
2022-11-28T04:58:52.571Z,5.10
2022-11-28T05:01:24.703Z,5.10
2022-11-28T05:03:53.606Z,5.20
2022-11-28T05:06:28.908Z,5.20
2022-11-28T05:08:57.493Z,5.30
2022-11-28T05:11:25.863Z,5.40
2022-11-28T05:13:53.824Z,5.40
2022-11-28T05:16:24.264Z,5.50
2022-11-28T05:18:52.301Z,5.50
2022-11-28T05:21:20.295Z,5.50
2022-11-28T05:23:49.784Z,5.40
2022-11-28T05:26:20.050Z,5.40
2022-11-28T05:28:49.956Z,5.40
2022-11-28T05:31:19.221Z,5.50
2022-11-28T05:33:47.405Z,5.60
2022-11-28T05:36:16.425Z,5.70
2022-11-28T05:38:45.270Z,5.80
2022-11-28T05:41:21.943Z,5.90
2022-11-28T05:43:50.363Z,6.00
2022-11-28T05:46:19.150Z,6.10
2022-11-28T05:48:47.340Z,6.20
2022-11-28T05:51:15.399Z,6.20
2022-11-28T05:53:43.501Z,6.30
2022-11-28T05:56:13.227Z,6.30
2022-11-28T05:58:42.919Z,6.40
2022-11-28T06:01:12.657Z,6.50
2022-11-28T06:03:40.719Z,6.50
2022-11-28T06:06:13.172Z,6.50
2022-11-28T06:08:41.552Z,6.60
2022-11-28T06:11:09.750Z,6.60
2022-11-28T06:13:38.517Z,6.60
2022-11-28T06:16:11.014Z,6.50
2022-11-28T06:18:39.335Z,6.50
2022-11-28T06:21:09.177Z,6.50
2022-11-28T06:23:38.843Z,6.50
2022-11-28T06:26:07.910Z,6.50
2022-11-28T06:28:36.133Z,6.50
2022-11-28T06:31:04.660Z,6.50
2022-11-28T06:33:34.160Z,6.60
2022-11-28T06:36:02.746Z,6.60
2022-11-28T06:38:31.278Z,6.70
2022-11-28T06:40:59.753Z,6.70
2022-11-28T06:43:27.967Z,6.70
2022-11-28T06:45:55.956Z,6.70
2022-11-28T06:48:24.776Z,6.80
2022-11-28T06:50:54.401Z,6.80
2022-11-28T06:53:24.197Z,6.80
2022-11-28T06:55:54.082Z,6.90
2022-11-28T06:58:22.096Z,6.90
2022-11-28T07:00:50.281Z,6.90
2022-11-28T07:03:18.290Z,7.00
2022-11-28T07:05:46.472Z,7.00
2022-11-28T07:08:15.911Z,7.00
2022-11-28T07:10:43.909Z,7.00
2022-11-28T07:13:11.881Z,7.00
2022-11-28T07:15:39.845Z,7.00
2022-11-28T07:18:07.803Z,7.00
2022-11-28T07:20:37.541Z,7.00
2022-11-28T07:23:05.534Z,7.00
2022-11-28T07:25:34.931Z,7.10
2022-11-28T07:28:03.231Z,7.10
2022-11-28T07:30:31.182Z,7.10
2022-11-28T07:32:59.183Z,7.10
2022-11-28T07:35:27.171Z,7.10
2022-11-28T07:37:55.139Z,7.10
2022-11-28T07:40:23.087Z,7.20
2022-11-28T07:42:52.894Z,7.20
2022-11-28T07:45:20.841Z,7.30
2022-11-28T07:47:48.757Z,7.30
2022-11-28T07:50:16.975Z,7.30
2022-11-28T07:52:44.954Z,7.30
2022-11-28T07:55:12.970Z,7.30
2022-11-28T07:57:41.317Z,7.20
2022-11-28T08:00:12.535Z,7.30
2022-11-28T08:02:40.809Z,7.30
2022-11-28T08:05:09.342Z,7.30
2022-11-28T08:07:37.890Z,7.30
2022-11-28T08:10:07.800Z,7.30
2022-11-28T08:12:35.760Z,7.30
2022-11-28T08:15:04.035Z,7.40
2022-11-28T08:17:35.833Z,7.40
2022-11-28T08:20:04.251Z,7.40
2022-11-28T08:22:32.203Z,7.50
2022-11-28T08:25:00.220Z,7.40
2022-11-28T08:27:28.206Z,7.40
2022-11-28T08:29:56.412Z,7.50
2022-11-28T08:32:25.640Z,7.50
2022-11-28T08:34:54.965Z,7.50
2022-11-28T08:37:22.899Z,7.50
2022-11-28T08:39:50.939Z,7.50
2022-11-28T08:42:19.612Z,7.60
2022-11-28T08:44:47.545Z,7.60
2022-11-28T08:47:15.640Z,7.70
2022-11-28T08:49:44.137Z,7.70
2022-11-28T08:52:14.175Z,7.80
2022-11-28T08:54:42.573Z,7.80
2022-11-28T08:57:10.861Z,7.90
2022-11-28T08:59:38.892Z,7.90
2022-11-28T09:02:06.861Z,7.90
2022-11-28T09:04:35.134Z,7.90
2022-11-28T09:07:03.345Z,7.90
2022-11-28T09:09:33.043Z,7.90
2022-11-28T09:12:01.346Z,7.90
2022-11-28T09:14:29.595Z,7.90
2022-11-28T09:16:57.883Z,7.90
2022-11-28T09:19:25.961Z,7.90
2022-11-28T09:21:57.640Z,8.00
2022-11-28T09:24:26.152Z,8.00
2022-11-28T09:26:55.512Z,8.00
2022-11-28T09:29:23.507Z,8.00
2022-11-28T09:31:51.452Z,8.00
2022-11-28T09:34:19.403Z,8.10
2022-11-28T09:36:48.308Z,8.10
2022-11-28T09:39:17.205Z,8.20
2022-11-28T09:41:56.203Z,8.20
2022-11-28T09:44:32.516Z,8.30
2022-11-28T09:47:03.101Z,8.30
2022-11-28T09:49:40.622Z,8.40
2022-11-28T09:52:24.354Z,8.30
2022-11-28T09:55:01.211Z,8.30
2022-11-28T09:57:35.389Z,8.40
2022-11-28T10:00:07.093Z,8.40
2022-11-28T10:02:49.368Z,8.40
2022-11-28T10:05:25.864Z,8.50
2022-11-28T10:08:06.389Z,8.60
2022-11-28T10:10:41.415Z,8.60
2022-11-28T10:13:16.230Z,8.70
2022-11-28T10:15:55.366Z,8.70
2022-11-28T10:18:35.265Z,8.80
2022-11-28T10:21:11.476Z,8.90
2022-11-28T10:23:43.419Z,9.00
2022-11-28T10:26:17.871Z,9.10
2022-11-28T10:28:50.775Z,9.10
2022-11-28T10:31:27.165Z,9.20
2022-11-28T10:34:02.022Z,9.20
2022-11-28T10:36:35.110Z,9.30
2022-11-28T10:39:11.512Z,9.30
2022-11-28T10:41:44.348Z,9.40
2022-11-28T10:44:21.694Z,9.50
2022-11-28T10:47:00.159Z,9.60
2022-11-28T10:49:36.971Z,9.70
2022-11-28T10:52:16.446Z,9.80
2022-11-28T10:55:01.014Z,9.80
2022-11-28T10:57:36.255Z,9.90
2022-11-28T11:00:10.952Z,9.80
2022-11-28T11:02:46.096Z,9.90
2022-11-28T11:05:16.872Z,9.90
2022-11-28T11:07:49.247Z,10.00
2022-11-28T11:10:20.406Z,10.00
2022-11-28T11:12:51.198Z,10.00
2022-11-28T11:15:24.388Z,10.00
2022-11-28T11:17:54.449Z,10.00
2022-11-28T11:20:33.644Z,10.00
2022-11-28T11:23:04.326Z,10.00
2022-11-28T11:25:33.729Z,10.00
2022-11-28T11:28:05.443Z,10.10
2022-11-28T11:30:36.084Z,10.20
2022-11-28T11:33:08.129Z,10.20
2022-11-28T11:35:38.085Z,10.20
2022-11-28T11:38:31.268Z,10.20
2022-11-28T11:41:22.660Z,10.20
2022-11-28T11:43:50.742Z,10.10
2022-11-28T11:46:18.910Z,10.10
2022-11-28T11:48:49.870Z,10.10
2022-11-28T11:51:26.414Z,10.10
2022-11-28T11:54:05.811Z,10.10
2022-11-28T11:56:37.541Z,10.10
2022-11-28T11:59:12.250Z,10.10
2022-11-28T12:01:43.457Z,10.10
2022-11-28T12:04:43.643Z,10.10
2022-11-28T12:07:23.352Z,10.10
2022-11-28T12:09:55.278Z,10.10
2022-11-28T12:12:26.260Z,10.10
2022-11-28T12:14:54.337Z,10.10
2022-11-28T12:17:54.491Z,10.20
2022-11-28T12:20:45.624Z,10.20
2022-11-28T12:23:33.872Z,10.20
2022-11-28T12:26:12.302Z,10.20
2022-11-28T12:28:54.283Z,10.20
2022-11-28T12:31:31.126Z,10.30
2022-11-28T12:34:12.338Z,10.30
2022-11-28T12:36:50.289Z,10.20
2022-11-28T12:39:23.799Z,10.20
2022-11-28T12:42:20.888Z,10.20
2022-11-28T12:45:08.510Z,10.10
2022-11-28T12:47:45.245Z,10.20
2022-11-28T12:50:24.253Z,10.10
2022-11-28T12:53:02.577Z,10.20
2022-11-28T12:55:41.727Z,10.10
2022-11-28T12:58:14.102Z,10.10
2022-11-28T13:00:53.865Z,10.20
2022-11-28T13:03:37.539Z,10.20
2022-11-28T13:06:19.153Z,10.20
2022-11-28T13:09:17.650Z,10.10
2022-11-28T13:11:55.004Z,10.10
2022-11-28T13:14:33.176Z,10.10
2022-11-28T13:17:16.292Z,10.10
2022-11-28T13:19:52.249Z,10.10
2022-11-28T13:22:24.586Z,10.10
2022-11-28T13:25:00.767Z,10.10
2022-11-28T13:27:37.873Z,10.10
2022-11-28T13:30:18.194Z,10.10
2022-11-28T13:32:50.213Z,10.20
2022-11-28T13:35:20.409Z,10.30
2022-11-28T13:40:52.012Z,10.20
2022-11-28T13:43:27.029Z,10.20
2022-11-28T13:45:56.038Z,10.40
2022-11-28T13:51:41.599Z,10.00
2022-11-28T13:54:42.817Z,9.90
2022-11-28T13:57:30.885Z,9.90
2022-11-28T14:00:06.079Z,9.80
2022-11-28T14:02:46.523Z,9.80
2022-11-28T14:05:29.605Z,9.80
2022-11-28T14:07:58.890Z,9.80
2022-11-28T14:10:58.295Z,9.80
2022-11-28T14:13:52.442Z,9.70
2022-11-28T14:16:33.151Z,9.70
2022-11-28T14:19:13.996Z,9.70
2022-11-28T14:21:54.439Z,9.70
2022-11-28T14:24:34.684Z,9.70
2022-11-28T14:27:04.978Z,9.60
2022-11-28T14:29:38.013Z,9.60
2022-11-28T14:32:28.947Z,9.60
2022-11-28T14:34:55.616Z,9.60
2022-11-28T14:37:52.944Z,9.60
2022-11-28T14:41:09.026Z,9.60
2022-11-28T14:43:39.921Z,9.50
2022-11-28T14:46:25.872Z,9.60
2022-11-28T14:49:18.879Z,9.50
2022-11-28T14:55:21.719Z,9.40
2022-11-28T14:57:56.957Z,9.40
2022-11-28T15:00:27.727Z,9.40
2022-11-28T15:03:19.423Z,9.40
2022-11-28T15:05:49.197Z,9.40
2022-11-28T15:08:39.585Z,9.40
2022-11-28T15:11:21.760Z,9.40
2022-11-28T15:14:09.437Z,9.30
2022-11-28T15:16:45.147Z,9.30
2022-11-28T15:19:24.287Z,9.30
2022-11-28T15:21:54.279Z,9.30
2022-11-28T15:24:27.990Z,9.30
2022-11-28T15:26:58.181Z,9.30
2022-11-28T15:29:28.564Z,9.30
2022-11-28T15:31:58.880Z,9.30
2022-11-28T15:34:31.444Z,9.30
2022-11-28T15:37:01.397Z,9.30
2022-11-28T15:39:44.398Z,9.30
2022-11-28T15:42:22.346Z,9.30
2022-11-28T15:44:53.875Z,9.30
2022-11-28T15:47:23.453Z,9.20
2022-11-28T15:50:03.139Z,9.20
2022-11-28T15:52:31.939Z,9.10
2022-11-28T15:55:00.645Z,9.10
2022-11-28T15:57:32.479Z,9.10
2022-11-28T16:00:02.994Z,9.10
2022-11-28T16:02:43.368Z,9.10
2022-11-28T16:05:20.701Z,9.10
2022-11-28T16:07:51.790Z,9.10
2022-11-28T16:10:24.454Z,9.10
2022-11-28T16:12:59.137Z,9.10
2022-11-28T16:15:28.388Z,9.10
2022-11-28T16:17:57.108Z,9.10
2022-11-28T16:20:29.124Z,9.20
2022-11-28T16:23:02.642Z,9.10
2022-11-28T16:25:32.654Z,9.10
2022-11-28T16:28:00.832Z,9.10
2022-11-28T16:30:36.647Z,9.00
2022-11-28T16:33:25.952Z,9.00
2022-11-28T16:36:21.639Z,9.00
2022-11-28T16:38:51.357Z,9.00
2022-11-28T16:41:23.320Z,9.00
2022-11-28T16:43:55.285Z,9.00
2022-11-28T16:46:25.633Z,9.00
2022-11-28T16:48:56.882Z,9.00
2022-11-28T16:51:35.482Z,9.00
2022-11-28T16:54:38.866Z,9.00
2022-11-28T16:57:12.060Z,8.90
2022-11-28T16:59:40.251Z,9.00
2022-11-28T17:02:15.765Z,9.00
2022-11-28T17:04:44.364Z,9.00
2022-11-28T17:07:16.419Z,9.00
2022-11-28T17:09:46.675Z,9.00
2022-11-28T17:12:20.322Z,9.00
2022-11-28T17:14:48.248Z,9.00
2022-11-28T17:17:18.028Z,9.00
2022-11-28T17:19:47.007Z,9.00
2022-11-28T17:22:19.260Z,9.00
2022-11-28T17:24:47.697Z,9.00
2022-11-28T17:27:16.627Z,9.10
2022-11-28T17:29:44.937Z,9.10
2022-11-28T17:32:13.779Z,9.10
2022-11-28T17:34:42.944Z,9.10
2022-11-28T17:37:11.398Z,9.10
2022-11-28T17:40:00.704Z,9.00
2022-11-28T17:42:28.672Z,9.00
2022-11-28T17:44:56.719Z,9.00
2022-11-28T17:47:24.792Z,9.00
2022-11-28T17:49:52.924Z,9.00
2022-11-28T17:52:22.088Z,8.90
2022-11-28T17:54:52.020Z,8.90
2022-11-28T17:57:20.250Z,8.90
2022-11-28T17:59:48.325Z,8.90
2022-11-28T18:02:16.623Z,8.90
2022-11-28T18:04:44.850Z,8.90
2022-11-28T18:07:13.598Z,8.90
2022-11-28T18:09:41.964Z,8.90
2022-11-28T18:12:11.343Z,8.90
2022-11-28T18:14:39.900Z,9.00
2022-11-28T18:17:08.684Z,8.90
2022-11-28T18:19:36.673Z,8.90
2022-11-28T18:22:06.260Z,8.90
2022-11-28T18:24:34.659Z,8.90
2022-11-28T18:27:03.255Z,8.90
2022-11-28T18:29:34.248Z,8.90
2022-11-28T18:32:02.302Z,8.90
2022-11-28T18:34:30.553Z,8.90
2022-11-28T18:37:00.798Z,8.90
2022-11-28T18:39:33.090Z,8.90
2022-11-28T18:42:01.357Z,8.80
2022-11-28T18:44:29.360Z,8.80
2022-11-28T18:46:58.819Z,8.80
2022-11-28T18:49:27.194Z,8.80
2022-11-28T18:51:56.913Z,8.80
2022-11-28T18:54:26.741Z,8.80
2022-11-28T18:56:54.811Z,8.80
2022-11-28T18:59:23.817Z,8.80
2022-11-28T19:01:52.033Z,8.80
2022-11-28T19:04:21.564Z,8.80
2022-11-28T19:06:50.379Z,8.80
2022-11-28T19:09:19.478Z,8.80
2022-11-28T19:11:48.065Z,8.80
2022-11-28T19:14:17.235Z,8.80
2022-11-28T19:16:46.894Z,8.80
2022-11-28T19:19:17.973Z,8.80
2022-11-28T19:21:48.488Z,8.80
2022-11-28T19:24:17.253Z,8.80
2022-11-28T19:26:45.342Z,8.80
2022-11-28T19:29:13.936Z,8.80
2022-11-28T19:31:42.911Z,8.80
2022-11-28T19:34:13.281Z,8.80
2022-11-28T19:36:43.938Z,8.80
2022-11-28T19:39:17.421Z,8.80
2022-11-28T19:41:46.307Z,8.80
2022-11-28T19:44:15.519Z,8.80
2022-11-28T19:46:43.707Z,8.80
2022-11-28T19:49:18.037Z,8.80
2022-11-28T19:51:47.132Z,8.80
2022-11-28T19:54:19.387Z,8.70
2022-11-28T19:56:47.890Z,8.70
2022-11-28T19:59:15.995Z,8.70
2022-11-28T20:01:44.617Z,8.70
2022-11-28T20:04:14.625Z,8.70
2022-11-28T20:06:42.633Z,8.70
2022-11-28T20:09:12.968Z,8.60
2022-11-28T20:11:45.634Z,8.60
2022-11-28T20:14:15.492Z,8.60
2022-11-28T20:16:44.351Z,8.60
2022-11-28T20:19:14.771Z,8.60
2022-11-28T20:21:46.004Z,8.60
2022-11-28T20:24:15.346Z,8.60
2022-11-28T20:26:45.475Z,8.60
2022-11-28T20:29:15.780Z,8.60
2022-11-28T20:31:46.174Z,8.50
2022-11-28T20:34:18.004Z,8.50
2022-11-28T20:36:46.985Z,8.50
2022-11-28T20:39:15.429Z,8.50
2022-11-28T20:41:44.717Z,8.60
2022-11-28T20:44:12.669Z,8.50
2022-11-28T20:46:40.803Z,8.50
2022-11-28T20:49:08.901Z,8.50
2022-11-28T20:51:37.218Z,8.50
2022-11-28T20:54:06.629Z,8.50
2022-11-28T20:57:04.991Z,8.40
2022-11-28T20:59:28.636Z,8.40
2022-11-28T21:01:56.617Z,8.50
2022-11-28T21:04:24.658Z,8.50
2022-11-28T21:06:52.635Z,8.50
2022-11-28T21:09:20.739Z,8.50
2022-11-28T21:11:58.529Z,8.40
2022-11-28T21:14:29.049Z,8.50
2022-11-28T21:16:58.781Z,8.50
2022-11-28T21:19:26.943Z,8.40
2022-11-28T21:21:55.138Z,8.40
2022-11-28T21:24:23.164Z,8.50
2022-11-28T21:26:53.900Z,8.40
2022-11-28T21:29:23.392Z,8.40
2022-11-28T21:31:53.319Z,8.40
2022-11-28T21:34:22.396Z,8.40
2022-11-28T21:36:50.364Z,8.40
2022-11-28T21:39:20.378Z,8.50
2022-11-28T21:41:48.869Z,8.50
2022-11-28T21:44:17.005Z,8.40
2022-11-28T21:46:45.607Z,8.50
2022-11-28T21:49:15.393Z,8.50
2022-11-28T21:51:43.347Z,8.50
2022-11-28T21:54:12.393Z,8.50
2022-11-28T21:56:40.419Z,8.50
2022-11-28T21:59:08.702Z,8.50
2022-11-28T22:01:36.736Z,8.50
2022-11-28T22:04:05.295Z,8.50
2022-11-28T22:06:34.811Z,8.50
2022-11-28T22:09:09.339Z,8.50
2022-11-28T22:11:38.623Z,8.50
2022-11-28T22:14:06.788Z,8.40
2022-11-28T22:16:34.980Z,8.50
2022-11-28T22:19:03.959Z,8.50
2022-11-28T22:24:21.451Z,8.50
2022-11-28T22:26:50.188Z,8.50
2022-11-28T22:29:19.337Z,8.50
2022-11-28T22:31:47.447Z,8.50
2022-11-28T22:34:15.681Z,8.50
2022-11-28T22:36:44.097Z,8.50
2022-11-28T22:39:12.415Z,8.50
2022-11-28T22:41:41.729Z,8.50
2022-11-28T22:44:12.178Z,8.40
2022-11-28T22:46:40.251Z,8.40
2022-11-28T22:49:11.001Z,8.40
2022-11-28T22:51:39.901Z,8.40
2022-11-28T22:54:08.975Z,8.50
2022-11-28T22:56:37.424Z,8.40
2022-11-28T22:59:08.220Z,8.50
2022-11-28T23:01:36.193Z,8.40
2022-11-28T23:04:04.617Z,8.40
2022-11-28T23:06:34.662Z,8.40
2022-11-28T23:09:05.057Z,8.40
2022-11-28T23:11:34.759Z,8.40
2022-11-28T23:14:03.779Z,8.40
2022-11-28T23:16:34.619Z,8.40
2022-11-28T23:19:05.263Z,8.30
2022-11-28T23:21:35.376Z,8.30
2022-11-28T23:24:04.968Z,8.30
2022-11-28T23:26:34.849Z,8.30
2022-11-28T23:29:05.982Z,8.30
2022-11-28T23:31:39.207Z,8.30
2022-11-28T23:34:09.776Z,8.30
2022-11-28T23:36:42.752Z,8.30
2022-11-28T23:39:13.950Z,8.30
2022-11-28T23:41:43.034Z,8.30
2022-11-28T23:44:12.393Z,8.30
2022-11-28T23:46:42.287Z,8.30
2022-11-28T23:49:10.464Z,8.30
2022-11-28T23:51:39.984Z,8.30
2022-11-28T23:54:08.405Z,8.40
2022-11-28T23:56:37.870Z,8.30
2022-11-28T23:59:07.874Z,8.30
